Time;durP1;ratioP1;P1;durP2;ratioP2;P2;SDS_P1;SDS_P2;PMS_P1;PMS_P2;Temp;Humidity;BMP_temperature;BMP_pressure;BME280_temperature;BME280_humidity;BME280_pressure;Samples;Min_cycle;Max_cycle;Signal;HPM_P1;HPM_P2
2023/07/25 00:01:54;;;;;;;0.00;0.00;;;24.20;91.10;;;;;;5057938;28;20017;-74
2023/07/25 00:04:19;;;;;;;0.10;0.10;;;24.30;90.90;;;;;;5057373;28;20261;-75
2023/07/25 00:06:45;;;;;;;0.38;0.38;;;24.30;90.30;;;;;;5057654;28;20035;-74
2023/07/25 00:09:11;;;;;;;0.35;0.35;;;24.40;90.90;;;;;;5057725;28;20709;-74
2023/07/25 00:11:37;;;;;;;3.03;2.83;;;24.50;90.60;;;;;;5057973;28;20609;-74
2023/07/25 00:14:02;;;;;;;1.50;1.42;;;24.30;90.40;;;;;;5058325;28;20012;-75
2023/07/25 00:16:28;;;;;;;0.10;0.10;;;24.30;91.20;;;;;;5039508;28;20037;-73
2023/07/25 00:18:54;;;;;;;2.95;2.75;;;24.30;90.30;;;;;;5058205;28;20028;-74
2023/07/25 00:21:19;;;;;;;0.10;0.10;;;24.40;90.60;;;;;;5057901;28;20489;-85
2023/07/25 00:23:45;;;;;;;0.10;0.10;;;24.40;90.60;;;;;;5057682;28;20028;-75
2023/07/25 00:26:11;;;;;;;0.10;0.10;;;24.50;91.80;;;;;;5057255;28;20100;-74
2023/07/25 00:28:37;;;;;;;0.08;0.08;;;24.50;91.90;;;;;;5057352;28;20028;-75
2023/07/25 00:31:07;;;;;;;0.10;0.10;;;24.40;91.20;;;;;;5039346;28;20021;-78
2023/07/25 00:33:33;;;;;;;0.28;0.28;;;24.50;91.60;;;;;;5056990;28;20049;-78
2023/07/25 00:35:58;;;;;;;0.10;0.10;;;24.40;92.20;;;;;;5039028;28;20086;-80
2023/07/25 00:38:24;;;;;;;12.45;11.27;;;24.60;92.10;;;;;;5057493;28;20021;-73
2023/07/25 00:40:50;;;;;;;0.10;0.10;;;24.60;92.40;;;;;;5057303;28;20647;-75
2023/07/25 00:43:16;;;;;;;0.20;0.20;;;24.70;91.40;;;;;;5039141;28;20548;-75
2023/07/25 00:45:42;;;;;;;0.10;0.10;;;24.70;90.30;;;;;;5057251;28;20586;-78
2023/07/25 00:48:08;;;;;;;1.75;0.95;;;24.80;91.70;;;;;;5057850;28;20032;-74
2023/07/25 00:50:34;;;;;;;1.55;1.45;;;24.80;90.40;;;;;;5056912;28;20013;-79
2023/07/25 00:53:02;;;;;;;0.10;0.10;;;24.80;90.70;;;;;;5057897;28;20099;-84
2023/07/25 00:55:28;;;;;;;0.10;0.10;;;24.90;91.50;;;;;;5038768;28;20025;-77
2023/07/25 00:57:54;;;;;;;0.45;0.45;;;24.90;90.60;;;;;;5057479;28;20406;-73
2023/07/25 01:00:20;;;;;;;2.55;2.42;;;24.80;91.30;;;;;;5057123;28;20024;-75
2023/07/25 01:02:46;;;;;;;0.17;0.17;;;24.90;90.70;;;;;;5056789;28;20017;-77
2023/07/25 01:05:12;;;;;;;0.65;0.65;;;24.90;91.00;;;;;;5039308;28;20032;-81
2023/07/25 01:07:40;;;;;;;0.10;0.10;;;24.90;90.30;;;;;;5056896;28;20402;-73
2023/07/25 01:10:06;;;;;;;1.48;1.00;;;25.00;90.50;;;;;;5057483;28;20094;-73
2023/07/25 01:12:32;;;;;;;3.10;0.82;;;25.00;90.10;;;;;;5057217;28;20025;-78
2023/07/25 01:14:58;;;;;;;0.10;0.10;;;25.10;88.30;;;;;;5057106;28;20051;-77
2023/07/25 01:17:25;;;;;;;0.95;0.95;;;25.20;87.60;;;;;;5057123;28;20093;-75
2023/07/25 01:19:52;;;;;;;2.05;1.90;;;25.30;88.60;;;;;;5056662;28;20017;-74
2023/07/25 01:22:19;;;;;;;0.22;0.20;;;25.40;87.30;;;;;;5056755;28;20025;-77
2023/07/25 01:24:47;;;;;;;0.13;0.13;;;25.60;85.90;;;;;;5056851;28;20009;-79
2023/07/25 01:27:14;;;;;;;1.15;1.08;;;26.20;82.70;;;;;;5056993;28;20487;-78
2023/07/25 01:29:40;;;;;;;1.13;1.08;;;26.30;82.60;;;;;;5057320;28;20024;-73
2023/07/25 01:32:06;;;;;;;0.00;0.00;;;26.50;82.40;;;;;;5056978;28;20033;-79
2023/07/25 01:34:32;;;;;;;6.72;6.32;;;26.80;79.80;;;;;;5060766;28;20094;-86
2023/07/25 01:36:57;;;;;;;0.20;0.20;;;27.00;79.40;;;;;;5060736;28;20028;-82
2023/07/25 01:39:23;;;;;;;3.95;0.75;;;27.10;79.20;;;;;;5060634;28;20182;-76
2023/07/25 01:41:49;;;;;;;0.35;0.30;;;27.20;78.80;;;;;;5060676;28;20133;-75
2023/07/25 01:44:15;;;;;;;0.77;0.77;;;27.20;78.30;;;;;;5060673;28;20511;-78
2023/07/25 01:46:41;;;;;;;0.95;0.90;;;27.20;79.20;;;;;;5060721;28;20029;-73
2023/07/25 01:49:11;;;;;;;0.10;0.10;;;27.20;78.60;;;;;;5060325;28;20658;-78
2023/07/25 01:51:37;;;;;;;0.10;0.10;;;27.40;77.90;;;;;;5060349;28;20654;-74
2023/07/25 01:54:03;;;;;;;1.30;1.30;;;27.30;77.90;;;;;;5042293;28;20025;-82
2023/07/25 01:56:29;;;;;;;0.10;0.10;;;26.70;77.10;;;;;;5060670;28;20027;-74
2023/07/25 01:58:55;;;;;;;0.00;0.00;;;27.30;77.80;;;;;;5061047;28;20021;-77
2023/07/25 02:01:21;;;;;;;0.30;0.30;;;27.30;78.90;;;;;;5061346;28;20077;-75
2023/07/25 02:03:46;;;;;;;0.10;0.10;;;27.20;78.70;;;;;;5066438;28;20150;-80
2023/07/25 02:06:12;;;;;;;0.15;0.15;;;27.10;79.70;;;;;;5061490;28;20017;-72
2023/07/25 02:08:38;;;;;;;0.38;0.38;;;27.00;80.70;;;;;;5061579;28;20029;-79
2023/07/25 02:11:04;;;;;;;0.98;0.55;;;26.90;79.80;;;;;;5060698;28;20579;-73
2023/07/25 02:13:30;;;;;;;0.10;0.10;;;27.00;79.80;;;;;;5060322;28;20162;-73
2023/07/25 02:15:56;;;;;;;0.10;0.10;;;27.00;79.10;;;;;;5059689;28;20723;-74
2023/07/25 02:18:21;;;;;;;0.10;0.10;;;27.20;78.60;;;;;;5060207;28;20059;-82
2023/07/25 02:20:47;;;;;;;0.10;0.10;;;27.20;78.10;;;;;;5060175;28;20108;-72
2023/07/25 02:23:13;;;;;;;0.00;0.00;;;27.20;78.60;;;;;;5059495;28;20083;-80
2023/07/25 02:25:39;;;;;;;0.22;0.22;;;27.30;77.80;;;;;;5042158;28;20032;-82
2023/07/25 02:28:04;;;;;;;0.10;0.10;;;27.40;77.50;;;;;;5059814;28;20560;-74
2023/07/25 02:30:30;;;;;;;1.65;1.55;;;27.60;76.90;;;;;;5060140;28;20063;-82
2023/07/25 02:32:56;;;;;;;0.00;0.00;;;27.70;76.50;;;;;;5059349;28;20054;-74
2023/07/25 02:35:22;;;;;;;1.48;1.40;;;27.80;76.40;;;;;;5059733;28;20209;-81
2023/07/25 02:37:47;;;;;;;0.95;0.25;;;27.80;76.30;;;;;;5059156;28;20110;-77
2023/07/25 02:40:13;;;;;;;1.42;1.33;;;27.90;76.10;;;;;;5059218;28;20054;-76
2023/07/25 02:42:39;;;;;;;0.10;0.10;;;27.90;76.10;;;;;;5059206;28;20020;-74
2023/07/25 02:45:05;;;;;;;0.00;0.00;;;27.90;76.30;;;;;;5058597;28;20019;-82
2023/07/25 02:47:31;;;;;;;0.17;0.13;;;27.10;75.80;;;;;;5059346;28;20100;-73
2023/07/25 02:49:57;;;;;;;0.80;0.80;;;27.80;76.30;;;;;;5060126;28;20096;-74
2023/07/25 02:52:22;;;;;;;0.00;0.00;;;27.90;76.10;;;;;;5063224;28;20029;-77
2023/07/25 02:54:48;;;;;;;1.45;1.35;;;27.80;76.40;;;;;;5065900;28;20025;-77
2023/07/25 02:57:14;;;;;;;1.40;1.38;;;27.80;76.20;;;;;;5060981;28;20023;-79
2023/07/25 02:59:42;;;;;;;0.47;0.47;;;27.80;76.40;;;;;;5059719;28;20016;-78
2023/07/25 03:02:18;;;;;;;0.10;0.10;;;27.80;76.20;;;;;;5059242;28;20217;-75
2023/07/25 03:04:44;;;;;;;7.35;6.65;;;;;;;;;;5041336;28;20028;-74
2023/07/25 03:07:10;;;;;;;0.47;0.45;;;28.10;75.10;;;;;;5059603;28;20136;-76
2023/07/25 03:09:37;;;;;;;1.77;0.95;;;28.10;76.40;;;;;;5041493;28;20711;-76
2023/07/25 03:12:04;;;;;;;11.70;7.43;;;28.00;75.80;;;;;;5041066;28;20056;-73
2023/07/25 03:14:29;;;;;;;3.63;0.98;;;28.00;76.00;;;;;;5059044;28;20016;-74
2023/07/25 03:16:55;;;;;;;0.43;0.43;;;28.00;76.20;;;;;;5058545;28;20028;-81
2023/07/25 03:19:24;;;;;;;0.00;0.00;;;27.90;76.10;;;;;;5058998;28;20020;-73
2023/07/25 03:21:50;;;;;;;0.10;0.10;;;27.90;77.00;;;;;;5040778;28;20075;-78
2023/07/25 03:24:16;;;;;;;5.00;4.70;;;27.80;76.40;;;;;;5058728;28;20659;-72
2023/07/25 03:26:42;;;;;;;17.50;16.30;;;27.80;77.10;;;;;;5058694;28;20035;-76
2023/07/25 03:29:08;;;;;;;0.00;0.00;;;27.80;76.40;;;;;;5058399;28;20050;-79
2023/07/25 03:31:34;;;;;;;1.25;1.17;;;27.70;76.60;;;;;;5058709;28;20720;-77
2023/07/25 03:33:59;;;;;;;4.13;3.92;;;27.60;77.10;;;;;;5058009;28;20048;-72
2023/07/25 03:36:25;;;;;;;0.10;0.10;;;27.70;77.00;;;;;;5040614;28;20059;-75
2023/07/25 03:38:51;;;;;;;0.73;0.63;;;27.60;76.90;;;;;;5058482;28;20103;-73
2023/07/25 03:41:16;;;;;;;0.00;0.00;;;27.60;76.80;;;;;;5058545;28;20052;-76
2023/07/25 03:43:42;;;;;;;0.30;0.30;;;27.60;76.80;;;;;;5057921;28;20008;-76
2023/07/25 03:46:08;;;;;;;0.03;0.03;;;27.70;76.60;;;;;;5039806;28;20667;-76
2023/07/25 03:48:34;;;;;;;0.20;0.20;;;27.80;76.50;;;;;;5058543;28;20459;-76
2023/07/25 03:51:00;;;;;;;0.10;0.10;;;27.90;76.60;;;;;;5058609;28;20027;-75
2023/07/25 03:53:28;;;;;;;0.90;0.85;;;27.90;76.30;;;;;;5058511;28;20410;-76
2023/07/25 03:55:54;;;;;;;0.57;0.57;;;;;;;;;;5058137;28;20024;-77
2023/07/25 03:58:20;;;;;;;0.55;0.55;;;27.90;75.50;;;;;;5039058;28;20032;-72
2023/07/25 04:00:45;;;;;;;0.75;0.75;;;28.00;75.70;;;;;;5058001;28;20095;-84
2023/07/25 04:03:11;;;;;;;0.10;0.10;;;28.00;75.80;;;;;;5057954;28;20626;-82
2023/07/25 04:05:37;;;;;;;0.15;0.15;;;28.00;75.80;;;;;;5039647;28;20068;-81
2023/07/25 04:08:03;;;;;;;0.30;0.30;;;28.10;75.60;;;;;;5057986;28;20035;-77
2023/07/25 04:10:29;;;;;;;1.75;1.20;;;28.10;75.90;;;;;;5057973;28;20028;-75
2023/07/25 04:12:54;;;;;;;0.08;0.08;;;28.00;76.10;;;;;;5058325;28;20691;-78
2023/07/25 04:15:20;;;;;;;18.55;2.85;;;28.00;76.00;;;;;;5058180;28;20044;-75
2023/07/25 04:17:46;;;;;;;0.10;0.10;;;28.00;76.10;;;;;;5058133;28;20020;-76
2023/07/25 04:20:11;;;;;;;0.00;0.00;;;28.20;75.60;;;;;;5058478;28;20032;-85
2023/07/25 04:22:38;;;;;;;0.00;0.00;;;28.10;75.60;;;;;;5058999;28;20096;-79
2023/07/25 04:25:04;;;;;;;4.30;4.05;;;28.10;75.90;;;;;;5060169;28;20013;-76
2023/07/25 04:27:33;;;;;;;0.40;0.40;;;28.10;75.70;;;;;;5059502;28;20229;-84
2023/07/25 04:29:59;;;;;;;0.10;0.10;;;28.10;75.20;;;;;;5058204;28;20025;-80
2023/07/25 04:32:25;;;;;;;0.08;0.08;;;28.30;75.90;;;;;;5039020;28;20097;-80
2023/07/25 04:34:50;;;;;;;0.95;0.63;;;28.20;75.80;;;;;;5058087;28;20040;-81
2023/07/25 04:37:16;;;;;;;0.10;0.10;;;28.10;76.30;;;;;;5058247;28;20024;-79
2023/07/25 04:39:42;;;;;;;0.10;0.10;;;28.00;76.00;;;;;;5058609;28;20021;-81
2023/07/25 04:42:07;;;;;;;0.10;0.10;;;28.00;76.50;;;;;;5060332;28;20077;-74
2023/07/25 04:44:33;;;;;;;0.10;0.10;;;28.10;75.70;;;;;;5058210;28;20009;-75
2023/07/25 04:46:59;;;;;;;0.00;0.00;;;28.10;76.40;;;;;;5058477;28;20031;-74
2023/07/25 04:49:25;;;;;;;0.28;0.28;;;28.00;77.40;;;;;;5058402;28;20095;-76
2023/07/25 04:51:51;;;;;;;0.15;0.15;;;27.70;78.80;;;;;;5057346;28;20109;-72
2023/07/25 04:54:16;;;;;;;0.10;0.10;;;27.80;77.60;;;;;;5058127;28;20689;-79
2023/07/25 04:56:43;;;;;;;0.05;0.05;;;27.80;77.40;;;;;;5058190;28;20025;-79
2023/07/25 04:59:09;;;;;;;0.10;0.10;;;27.80;77.20;;;;;;5058013;28;20027;-82
2023/07/25 05:01:35;;;;;;;30.63;1.95;;;28.00;75.90;;;;;;5057493;28;20221;-78
2023/07/25 05:04:00;;;;;;;0.10;0.10;;;28.10;75.70;;;;;;5057773;28;20655;-76
2023/07/25 05:06:26;;;;;;;0.00;0.00;;;28.10;77.00;;;;;;5057915;28;20013;-80
2023/07/25 05:08:52;;;;;;;0.00;0.00;;;28.00;77.10;;;;;;5059668;28;20088;-73
2023/07/25 05:11:18;;;;;;;0.10;0.10;;;27.90;78.10;;;;;;5061221;28;20055;-87
2023/07/25 05:13:43;;;;;;;0.38;0.30;;;27.70;79.10;;;;;;5062451;28;20078;-81
2023/07/25 05:16:09;;;;;;;1.60;1.50;;;27.70;79.20;;;;;;5061888;28;20213;-75
2023/07/25 05:18:35;;;;;;;2.63;2.40;;;27.70;80.30;;;;;;5061806;28;20028;-86
2023/07/25 05:21:01;;;;;;;16.10;0.55;;;27.50;81.20;;;;;;5061631;28;20023;-76
2023/07/25 05:23:26;;;;;;;0.50;0.50;;;27.40;81.50;;;;;;5062071;28;20029;-78
2023/07/25 05:25:54;;;;;;;1.63;0.85;;;27.40;81.60;;;;;;5061601;28;20017;-73
2023/07/25 05:28:20;;;;;;;0.10;0.10;;;27.50;83.30;;;;;;5061307;28;20731;-75
2023/07/25 05:30:46;;;;;;;0.60;0.57;;;27.50;82.30;;;;;;5061636;28;20096;-83
2023/07/25 05:33:12;;;;;;;1.05;0.55;;;29.80;84.00;;;;;;5060648;28;20079;-83
2023/07/25 05:35:37;;;;;;;2.80;2.60;;;27.60;82.00;;;;;;5061404;28;20830;-80
2023/07/25 05:38:07;;;;;;;0.10;0.10;;;27.70;79.60;;;;;;5061322;28;20024;-78
2023/07/25 05:40:34;;;;;;;7.82;3.92;;;28.70;78.50;;;;;;5061385;28;20017;-76
2023/07/25 05:42:59;;;;;;;1.38;1.38;;;27.80;82.40;;;;;;5042649;28;20041;-77
2023/07/25 05:45:26;;;;;;;0.10;0.10;;;27.80;81.60;;;;;;5061356;28;20105;-73
2023/07/25 05:47:51;;;;;;;1.00;0.95;;;27.90;79.60;;;;;;5062467;28;20548;-81
2023/07/25 05:50:17;;;;;;;0.20;0.20;;;28.00;79.60;;;;;;5062249;28;20021;-78
2023/07/25 05:52:43;;;;;;;1.33;1.33;;;27.90;82.60;;;;;;5060562;28;20664;-73
2023/07/25 05:55:09;;;;;;;3.78;2.20;;;28.00;80.40;;;;;;5063067;28;20217;-72
2023/07/25 05:57:34;;;;;;;1.95;1.65;;;28.30;76.30;;;;;;5062767;28;20031;-78
2023/07/25 06:00:00;;;;;;;0.00;0.00;;;28.60;75.00;;;;;;5044734;28;20536;-73
2023/07/25 06:02:26;;;;;;;2.28;0.93;;;28.80;74.90;;;;;;5063142;28;20736;-73
2023/07/25 06:04:51;;;;;;;1.15;1.05;;;28.80;74.40;;;;;;5060005;28;20744;-78
2023/07/25 06:07:18;;;;;;;1.45;1.20;;;28.90;74.00;;;;;;5043720;28;20031;-76
2023/07/25 06:09:44;;;;;;;0.10;0.10;;;29.00;74.50;;;;;;5061892;28;20096;-77
2023/07/25 06:12:10;;;;;;;2.17;2.08;;;29.10;74.00;;;;;;5041329;28;20132;-73
2023/07/25 06:14:36;;;;;;;1.95;1.85;;;29.20;74.50;;;;;;5059893;28;20392;-74
2023/07/25 06:17:03;;;;;;;0.15;0.15;;;29.20;73.20;;;;;;5060012;28;20021;-74
2023/07/25 06:19:29;;;;;;;0.00;0.00;;;29.30;72.50;;;;;;5059509;28;20109;-74
2023/07/25 06:21:55;;;;;;;1.15;0.25;;;29.40;73.30;;;;;;5059307;28;20095;-74
2023/07/25 06:24:22;;;;;;;2.83;0.75;;;29.60;71.50;;;;;;5059709;28;20655;-75
2023/07/25 06:26:48;;;;;;;3.83;2.00;;;29.60;71.90;;;;;;5042036;28;20020;-78
2023/07/25 06:29:14;;;;;;;0.10;0.10;;;29.70;70.90;;;;;;5059842;28;20161;-74
2023/07/25 06:31:40;;;;;;;0.00;0.00;;;29.80;70.90;;;;;;5059892;28;20025;-74
2023/07/25 06:34:06;;;;;;;0.10;0.10;;;29.90;69.70;;;;;;5061044;28;20048;-74
2023/07/25 06:36:32;;;;;;;0.57;0.57;;;29.60;70.80;;;;;;5060788;28;20406;-74
2023/07/25 06:38:58;;;;;;;2.83;0.95;;;29.90;73.40;;;;;;5059949;28;20021;-75
2023/07/25 06:41:24;;;;;;;0.00;0.00;;;29.90;75.10;;;;;;5060151;28;20017;-75
2023/07/25 06:43:49;;;;;;;0.17;0.13;;;29.60;74.70;;;;;;5061177;28;20019;-81
2023/07/25 06:46:15;;;;;;;5.68;5.15;;;29.70;73.80;;;;;;5059567;28;20047;-80
2023/07/25 06:48:41;;;;;;;0.10;0.10;;;29.70;75.40;;;;;;5059422;28;20050;-74
2023/07/25 06:51:06;;;;;;;0.10;0.10;;;29.80;75.40;;;;;;5040641;28;20123;-75
2023/07/25 06:53:32;;;;;;;2.55;0.93;;;29.60;77.60;;;;;;5059205;28;20027;-77
2023/07/25 06:55:58;;;;;;;3.70;3.45;;;29.60;78.40;;;;;;5058696;28;20107;-74
2023/07/25 06:58:24;;;;;;;0.52;0.32;;;29.50;77.80;;;;;;5059244;28;20651;-74
2023/07/25 07:00:49;;;;;;;0.47;0.40;;;29.50;78.10;;;;;;5059495;28;20017;-74
2023/07/25 07:03:15;;;;;;;0.00;0.00;;;29.60;78.20;;;;;;5058683;28;20107;-74
2023/07/25 07:05:41;;;;;;;2.22;0.95;;;29.60;79.10;;;;;;5058729;28;20074;-75
2023/07/25 07:08:07;;;;;;;0.05;0.05;;;29.60;79.70;;;;;;5041009;28;20017;-82
2023/07/25 07:10:33;;;;;;;0.00;0.00;;;29.60;79.00;;;;;;5058026;28;20028;-74
2023/07/25 07:12:59;;;;;;;0.00;0.00;;;29.70;79.40;;;;;;5040853;28;20125;-75
2023/07/25 07:15:26;;;;;;;2.38;0.70;;;29.80;78.90;;;;;;5058489;28;20013;-82
2023/07/25 07:17:55;;;;;;;0.03;0.03;;;29.90;78.30;;;;;;5058693;28;20062;-74
2023/07/25 07:20:21;;;;;;;9.77;1.70;;;30.00;76.00;;;;;;5058921;28;20027;-72
2023/07/25 07:22:46;;;;;;;0.38;0.38;;;29.30;75.30;;;;;;5060018;28;20105;-74
2023/07/25 07:25:13;;;;;;;0.10;0.10;;;30.10;75.50;;;;;;5061006;28;20052;-79
2023/07/25 07:27:38;;;;;;;0.00;0.00;;;30.20;75.40;;;;;;5060250;28;20016;-82
2023/07/25 07:30:05;;;;;;;0.10;0.10;;;30.30;75.40;;;;;;5058316;28;20036;-72
2023/07/25 07:32:31;;;;;;;0.95;0.95;;;30.40;74.70;;;;;;5038909;28;20044;-72
2023/07/25 07:34:57;;;;;;;1.95;0.90;;;30.50;75.30;;;;;;5058519;28;20222;-73
2023/07/25 07:37:22;;;;;;;0.30;0.30;;;30.60;73.70;;;;;;5058444;28;20051;-73
2023/07/25 07:39:48;;;;;;;0.00;0.00;;;30.70;72.50;;;;;;5059113;28;20533;-82
2023/07/25 07:42:14;;;;;;;4.13;3.20;;;30.90;72.70;;;;;;5057782;28;20129;-74
2023/07/25 07:44:40;;;;;;;0.10;0.10;;;31.10;72.00;;;;;;5059146;28;20024;-76
2023/07/25 07:47:06;;;;;;;0.45;0.43;;;31.30;72.70;;;;;;5059219;28;20016;-80
2023/07/25 07:49:34;;;;;;;0.22;0.22;;;31.40;72.00;;;;;;5060681;28;20098;-74
2023/07/25 07:52:01;;;;;;;0.55;0.55;;;31.60;71.30;;;;;;5041653;28;20031;-74
2023/07/25 07:54:27;;;;;;;1.35;0.95;;;31.60;69.90;;;;;;5058890;28;20105;-81
2023/07/25 07:56:52;;;;;;;0.88;0.80;;;31.80;71.50;;;;;;5058684;28;20058;-72
2023/07/25 07:59:18;;;;;;;0.52;0.52;;;33.90;70.10;;;;;;5057874;28;20371;-80
2023/07/25 08:01:44;;;;;;;0.60;0.50;;;31.80;68.30;;;;;;5058485;28;20025;-77
2023/07/25 08:04:11;;;;;;;1.55;1.00;;;31.80;68.50;;;;;;5058959;28;20021;-79
2023/07/25 08:06:36;;;;;;;0.20;0.20;;;32.00;68.00;;;;;;5058287;28;20506;-81
2023/07/25 08:09:02;;;;;;;0.63;0.20;;;32.10;67.40;;;;;;5058186;28;20036;-74
2023/07/25 08:11:28;;;;;;;0.75;0.52;;;32.20;66.50;;;;;;5057752;28;20734;-75
2023/07/25 08:13:54;;;;;;;2.20;0.93;;;32.20;65.80;;;;;;5057723;28;20701;-74
2023/07/25 08:16:19;;;;;;;0.32;0.30;;;32.40;65.60;;;;;;5057693;28;20024;-80
2023/07/25 08:18:45;;;;;;;0.28;0.28;;;32.20;65.30;;;;;;5057819;28;20756;-76
2023/07/25 08:21:11;;;;;;;0.43;0.43;;;32.20;66.40;;;;;;5058060;28;20020;-74
2023/07/25 08:23:37;;;;;;;1.05;0.93;;;32.60;65.50;;;;;;5058054;28;20042;-84
2023/07/25 08:26:03;;;;;;;1.65;1.55;;;32.90;65.80;;;;;;5057947;28;20051;-73
2023/07/25 08:28:28;;;;;;;0.85;0.50;;;33.00;65.00;;;;;;5057972;28;20618;-81
2023/07/25 08:30:59;;;;;;;1.20;1.20;;;33.20;64.20;;;;;;5057809;28;20023;-76
2023/07/25 08:33:31;;;;;;;2.20;1.85;;;33.20;64.40;;;;;;5040073;28;20049;-78
2023/07/25 08:35:57;;;;;;;0.35;0.32;;;33.20;63.80;;;;;;5058009;28;20016;-77
2023/07/25 08:38:29;;;;;;;1.70;1.45;;;33.30;64.30;;;;;;5040166;28;20695;-76
2023/07/25 08:41:11;;;;;;;0.52;0.30;;;29.80;61.30;;;;;;5040062;28;20016;-73
2023/07/25 08:43:39;;;;;;;0.20;0.20;;;33.70;63.70;;;;;;5058051;28;20036;-78
2023/07/25 08:46:08;;;;;;;0.20;0.20;;;34.30;64.20;;;;;;5060717;28;20025;-75
2023/07/25 08:48:39;;;;;;;0.10;0.10;;;33.90;64.10;;;;;;5061314;28;20013;-78
2023/07/25 08:51:20;;;;;;;2.85;2.65;;;34.10;64.70;;;;;;5043530;28;20021;-76
2023/07/25 08:54:29;;;;;;;0.88;0.60;;;34.30;64.00;;;;;;5043564;28;20032;-74
2023/07/25 08:56:55;;;;;;;0.30;0.30;;;34.60;63.70;;;;;;4962634;28;20030;-77
2023/07/25 08:59:22;;;;;;;3.47;1.00;;;34.70;63.30;;;;;;4979340;28;20072;-75
2023/07/25 09:01:48;;;;;;;1.52;0.93;;;34.60;63.40;;;;;;4978845;28;20117;-74
2023/07/25 09:04:15;;;;;;;0.32;0.32;;;34.70;62.80;;;;;;4978892;28;20205;-75
2023/07/25 09:06:41;;;;;;;9.95;5.13;;;34.70;63.40;;;;;;4961987;28;20069;-75
2023/07/25 09:09:07;;;;;;;0.10;0.10;;;34.70;62.60;;;;;;4962720;28;20745;-74
2023/07/25 09:11:34;;;;;;;0.98;0.75;;;34.60;62.90;;;;;;4962405;28;20182;-75
2023/07/25 09:14:03;;;;;;;0.43;0.43;;;34.60;61.70;;;;;;4962371;28;20125;-73
2023/07/25 09:16:31;;;;;;;2.40;1.17;;;34.50;63.00;;;;;;4978805;28;20022;-76
2023/07/25 09:18:57;;;;;;;1.27;1.17;;;34.40;63.80;;;;;;4978927;28;20022;-75
2023/07/25 09:21:22;;;;;;;3.53;3.22;;;34.20;62.70;;;;;;4979083;28;20034;-74
2023/07/25 09:23:59;;;;;;;0.10;0.10;;;34.30;63.30;;;;;;4962246;28;20247;-74
2023/07/25 09:26:29;;;;;;;7.13;1.50;;;34.40;63.60;;;;;;4962322;28;20121;-75
2023/07/25 09:28:58;;;;;;;14.25;0.68;;;34.70;64.40;;;;;;4979217;28;20360;-75
2023/07/25 09:31:25;;;;;;;0.13;0.10;;;34.50;62.50;;;;;;4962178;28;20053;-74
2023/07/25 09:33:54;;;;;;;0.45;0.30;;;34.50;62.40;;;;;;5026776;28;20083;-77
2023/07/25 09:36:20;;;;;;;0.30;0.30;;;34.70;61.70;;;;;;5043596;28;20023;-75
2023/07/25 09:38:53;;;;;;;0.15;0.15;;;34.70;61.30;;;;;;5042966;28;20023;-75
2023/07/25 09:41:22;;;;;;;0.10;0.10;;;35.00;61.70;;;;;;5042878;28;20633;-74
2023/07/25 09:43:48;;;;;;;0.10;0.10;;;35.10;61.40;;;;;;5060714;28;20025;-75
2023/07/25 09:46:14;;;;;;;0.20;0.20;;;35.20;61.10;;;;;;5025443;28;20020;-76
2023/07/25 09:48:50;;;;;;;0.20;0.20;;;35.20;62.10;;;;;;5043871;28;20540;-75
2023/07/25 09:51:16;;;;;;;0.28;0.28;;;35.30;60.60;;;;;;5062515;28;20032;-75
2023/07/25 09:53:50;;;;;;;2.60;2.13;;;35.20;63.20;;;;;;5060600;28;20033;-75
2023/07/25 09:56:16;;;;;;;1.00;0.93;;;35.40;63.60;;;;;;5060921;28;20297;-77
2023/07/25 09:58:42;;;;;;;0.20;0.20;;;35.00;66.30;;;;;;5042565;28;20020;-75
2023/07/25 10:01:09;;;;;;;1.45;0.75;;;35.10;66.30;;;;;;5042631;28;20652;-75
2023/07/25 10:03:36;;;;;;;1.17;0.82;;;34.80;66.70;;;;;;5042292;28;20019;-76
2023/07/25 10:06:04;;;;;;;3.00;1.30;;;34.60;66.80;;;;;;5061017;28;20063;-76
2023/07/25 10:08:31;;;;;;;0.35;0.35;;;34.50;67.40;;;;;;5060743;28;20027;-75
2023/07/25 10:10:57;;;;;;;0.65;0.65;;;32.70;67.20;;;;;;5060375;28;20039;-75
2023/07/25 10:13:23;;;;;;;0.40;0.20;;;34.50;68.60;;;;;;5042746;28;20121;-74
2023/07/25 10:15:51;;;;;;;0.45;0.45;;;34.00;69.10;;;;;;5042208;28;20024;-75
2023/07/25 10:18:23;;;;;;;0.90;0.85;;;34.00;69.90;;;;;;5060029;28;20221;-74
2023/07/25 10:20:50;;;;;;;1.50;1.17;;;34.00;70.40;;;;;;5060331;28;20349;-75
2023/07/25 10:23:16;;;;;;;0.28;0.28;;;34.40;70.50;;;;;;5042126;28;20031;-75
2023/07/25 10:25:42;;;;;;;2.83;2.63;;;34.30;71.20;;;;;;5041808;28;20357;-75
2023/07/25 10:28:09;;;;;;;0.40;0.40;;;34.80;70.50;;;;;;5041646;28;20028;-75
2023/07/25 10:30:48;;;;;;;0.47;0.32;;;35.00;68.90;;;;;;5025220;28;20715;-75
2023/07/25 10:33:15;;;;;;;4.25;1.00;;;34.50;68.00;;;;;;5041061;28;20052;-75
2023/07/25 10:35:56;;;;;;;1.20;1.20;;;34.50;66.40;;;;;;5041973;28;20032;-75
2023/07/25 10:38:31;;;;;;;1.23;0.80;;;34.50;67.00;;;;;;5059778;28;20032;-74
2023/07/25 10:41:09;;;;;;;0.13;0.13;;;34.80;66.20;;;;;;5041850;28;20087;-74
2023/07/25 10:43:55;;;;;;;0.00;0.00;;;34.60;66.20;;;;;;5059350;28;20012;-75
2023/07/25 10:46:22;;;;;;;1.55;1.45;;;34.80;66.70;;;;;;5041252;28;20101;-75
2023/07/25 10:48:52;;;;;;;2.10;1.08;;;34.80;65.50;;;;;;5059369;28;20031;-75
2023/07/25 10:51:19;;;;;;;0.30;0.30;;;34.80;65.50;;;;;;5041089;28;20194;-74
2023/07/25 10:54:07;;;;;;;0.30;0.30;;;32.80;64.30;;;;;;5042984;28;20012;-85
2023/07/25 10:56:33;;;;;;;3.72;0.45;;;35.00;65.00;;;;;;5060842;28;20024;-75
2023/07/25 10:59:08;;;;;;;1.63;1.52;;;35.00;65.20;;;;;;5061417;28;20051;-74
2023/07/25 11:01:38;;;;;;;2.80;0.43;;;34.70;64.30;;;;;;5062162;28;20088;-74
2023/07/25 11:04:22;;;;;;;0.63;0.63;;;34.70;64.50;;;;;;5041530;28;20025;-77
2023/07/25 11:06:49;;;;;;;1.05;0.63;;;34.40;65.30;;;;;;5058876;28;20025;-74
2023/07/25 11:09:15;;;;;;;0.65;0.63;;;34.10;66.20;;;;;;5059266;28;20082;-75
2023/07/25 11:11:45;;;;;;;0.70;0.47;;;33.90;66.60;;;;;;5058782;28;20028;-74
2023/07/25 11:14:17;;;;;;;0.70;0.70;;;33.90;67.50;;;;;;5058940;28;20021;-74
2023/07/25 11:16:44;;;;;;;3.28;3.00;;;33.90;67.90;;;;;;5041305;28;20017;-77
2023/07/25 11:19:14;;;;;;;0.30;0.20;;;34.00;69.20;;;;;;5059107;28;20059;-76
2023/07/25 11:21:41;;;;;;;1.90;1.00;;;33.20;70.20;;;;;;5041001;28;20024;-74
2023/07/25 11:24:08;;;;;;;1.42;1.33;;;33.60;68.70;;;;;;5040469;28;20016;-74
2023/07/25 11:26:38;;;;;;;0.43;0.38;;;33.70;68.30;;;;;;5040470;28;20013;-74
2023/07/25 11:29:15;;;;;;;0.28;0.28;;;33.70;69.00;;;;;;5058301;28;20050;-76
2023/07/25 11:31:46;;;;;;;0.63;0.57;;;33.70;69.10;;;;;;5040865;28;20040;-74
2023/07/25 11:34:15;;;;;;;0.60;0.60;;;34.20;69.80;;;;;;5039944;28;20045;-75
2023/07/25 11:36:41;;;;;;;1.35;0.90;;;34.00;69.90;;;;;;5058216;28;20044;-75
2023/07/25 11:39:08;;;;;;;3.63;3.33;;;34.20;69.60;;;;;;5040335;28;20024;-75
2023/07/25 11:41:54;;;;;;;1.33;1.23;;;34.50;69.90;;;;;;5058510;28;20016;-75
2023/07/25 11:44:20;;;;;;;7.47;4.50;;;34.40;68.00;;;;;;4959811;28;20033;-73
2023/07/25 11:46:52;;;;;;;13.30;11.07;;;34.40;69.70;;;;;;4976227;28;20039;-79
2023/07/25 11:49:19;;;;;;;2.50;2.22;;;34.40;69.50;;;;;;4975636;28;20741;-74
2023/07/25 11:51:46;;;;;;;2.63;2.28;;;34.30;70.10;;;;;;4975685;28;20052;-74
2023/07/25 11:54:12;;;;;;;9.60;4.38;;;34.20;70.70;;;;;;4975800;28;20041;-74
2023/07/25 11:56:38;;;;;;;1.30;1.20;;;33.90;66.00;;;;;;4975815;28;20025;-75
2023/07/25 11:59:04;;;;;;;1.20;1.05;;;34.00;63.30;;;;;;4959494;28;20034;-76
2023/07/25 12:01:32;;;;;;;0.05;0.05;;;33.80;61.30;;;;;;4958969;28;20135;-74
2023/07/25 12:04:00;;;;;;;5.50;2.17;;;33.50;59.60;;;;;;4959599;28;20041;-82
2023/07/25 12:06:30;;;;;;;14.05;3.65;;;33.60;61.00;;;;;;4975772;28;20053;-75
2023/07/25 12:08:56;;;;;;;5.82;5.28;;;33.60;63.20;;;;;;4975577;28;20229;-79
2023/07/25 12:11:22;;;;;;;5.70;2.17;;;33.70;59.70;;;;;;4975852;28;20109;-78
2023/07/25 12:13:55;;;;;;;0.40;0.40;;;33.40;59.50;;;;;;4975999;28;20110;-77
2023/07/25 12:16:31;;;;;;;3.05;0.35;;;33.20;59.70;;;;;;5023173;28;20730;-78
2023/07/25 12:19:00;;;;;;;6.20;1.40;;;33.40;59.10;;;;;;5057434;28;20058;-77
2023/07/25 12:21:30;;;;;;;3.50;0.80;;;33.60;60.60;;;;;;5040184;28;20016;-76
2023/07/25 12:24:02;;;;;;;0.45;0.43;;;33.50;60.60;;;;;;5039749;28;20086;-82
2023/07/25 12:26:28;;;;;;;2.95;0.73;;;33.30;61.10;;;;;;5040756;28;20628;-82
2023/07/25 12:28:55;;;;;;;0.45;0.45;;;33.20;60.40;;;;;;5039479;28;20036;-77
2023/07/25 12:31:21;;;;;;;2.28;2.10;;;30.60;59.40;;;;;;5044741;28;20055;-81
2023/07/25 12:33:50;;;;;;;1.45;1.35;;;33.40;63.70;;;;;;5061363;28;20336;-76
2023/07/25 12:36:18;;;;;;;0.13;0.10;;;33.90;61.70;;;;;;5046603;28;20067;-76
2023/07/25 12:38:44;;;;;;;0.68;0.52;;;34.50;58.40;;;;;;5058676;28;20027;-77
2023/07/25 12:41:11;;;;;;;0.32;0.28;;;35.40;61.30;;;;;;5057725;28;20146;-75
2023/07/25 12:43:37;;;;;;;4.95;1.27;;;35.40;60.30;;;;;;5058558;28;20028;-78
2023/07/25 12:46:03;;;;;;;0.20;0.20;;;36.20;60.10;;;;;;5058634;28;20025;-75
2023/07/25 12:48:29;;;;;;;0.32;0.32;;;36.80;60.40;;;;;;5057942;28;20021;-76